sensor_id;sensor_type;location;lat;lon;timestamp;pressure;altitude;pressure_sealevel;temperature;humidity
12536;BME280;6334;48.696;2.114;2022-07-29T00:01:54;99787.33;;;21.79;42.29
12536;BME280;6334;48.696;2.114;2022-07-29T00:04:25;99785.00;;;21.97;42.04
12536;BME280;6334;48.696;2.114;2022-07-29T00:06:55;99785.02;;;21.94;42.30
12536;BME280;6334;48.696;2.114;2022-07-29T00:09:25;99778.79;;;21.69;42.76
12536;BME280;6334;48.696;2.114;2022-07-29T00:11:57;99781.71;;;21.64;43.54
12536;BME280;6334;48.696;2.114;2022-07-29T00:14:27;99781.21;;;21.64;43.07
12536;BME280;6334;48.696;2.114;2022-07-29T00:16:57;99776.56;;;21.64;43.31
12536;BME280;6334;48.696;2.114;2022-07-29T00:19:27;99779.38;;;21.77;43.98
12536;BME280;6334;48.696;2.114;2022-07-29T00:21:58;99773.15;;;21.40;45.17
12536;BME280;6334;48.696;2.114;2022-07-29T00:24:28;99769.07;;;21.01;46.34
12536;BME280;6334;48.696;2.114;2022-07-29T00:26:59;99763.25;;;21.39;44.98
12536;BME280;6334;48.696;2.114;2022-07-29T00:29:29;99764.50;;;21.49;44.63
12536;BME280;6334;48.696;2.114;2022-07-29T00:32:00;99701.66;;;21.05;44.51
12536;BME280;6334;48.696;2.114;2022-07-29T00:34:30;99759.66;;;21.58;44.22
12536;BME280;6334;48.696;2.114;2022-07-29T00:37:18;99763.34;;;21.29;44.54
12536;BME280;6334;48.696;2.114;2022-07-29T00:39:49;99758.70;;;21.23;44.40
12536;BME280;6334;48.696;2.114;2022-07-29T00:42:19;99760.53;;;21.32;44.23
12536;BME280;6334;48.696;2.114;2022-07-29T00:44:50;99741.02;;;21.08;44.60
12536;BME280;6334;48.696;2.114;2022-07-29T00:47:20;99753.76;;;21.29;44.02
12536;BME280;6334;48.696;2.114;2022-07-29T00:49:51;99753.97;;;21.23;44.32
12536;BME280;6334;48.696;2.114;2022-07-29T00:52:21;99754.17;;;21.16;44.55
12536;BME280;6334;48.696;2.114;2022-07-29T00:54:52;99749.37;;;21.20;44.86
12536;BME280;6334;48.696;2.114;2022-07-29T00:57:22;99754.67;;;21.19;44.62
12536;BME280;6334;48.696;2.114;2022-07-29T00:59:53;99756.06;;;21.13;44.71
12536;BME280;6334;48.696;2.114;2022-07-29T01:02:23;99755.91;;;21.14;44.78
12536;BME280;6334;48.696;2.114;2022-07-29T01:04:53;99763.09;;;21.04;45.05
12536;BME280;6334;48.696;2.114;2022-07-29T01:07:24;99759.59;;;21.02;44.91
12536;BME280;6334;48.696;2.114;2022-07-29T01:09:54;99757.23;;;20.80;45.77
12536;BME280;6334;48.696;2.114;2022-07-29T01:12:25;99760.44;;;21.00;44.84
12536;BME280;6334;48.696;2.114;2022-07-29T01:14:55;99757.77;;;21.06;44.45
12536;BME280;6334;48.696;2.114;2022-07-29T01:17:33;99754.06;;;21.08;44.82
12536;BME280;6334;48.696;2.114;2022-07-29T01:34:08;99764.73;;;20.70;45.81
12536;BME280;6334;48.696;2.114;2022-07-29T01:36:44;99764.11;;;20.67;45.77
12536;BME280;6334;48.696;2.114;2022-07-29T01:39:17;99766.75;;;20.70;46.02
12536;BME280;6334;48.696;2.114;2022-07-29T01:44:37;99768.00;;;20.76;46.28
12536;BME280;6334;48.696;2.114;2022-07-29T01:47:11;99765.58;;;20.56;46.73
12536;BME280;6334;48.696;2.114;2022-07-29T01:49:42;99766.05;;;20.24;47.64
12536;BME280;6334;48.696;2.114;2022-07-29T01:52:13;99741.01;;;20.23;47.26
12536;BME280;6334;48.696;2.114;2022-07-29T01:54:43;99771.70;;;20.32;47.65
12536;BME280;6334;48.696;2.114;2022-07-29T01:57:13;99767.95;;;20.43;47.21
12536;BME280;6334;48.696;2.114;2022-07-29T01:59:43;99764.02;;;20.45;47.21
12536;BME280;6334;48.696;2.114;2022-07-29T02:02:13;99762.28;;;20.36;46.98
12536;BME280;6334;48.696;2.114;2022-07-29T02:04:44;99767.91;;;20.41;47.27
12536;BME280;6334;48.696;2.114;2022-07-29T02:07:15;99773.39;;;20.38;47.40
12536;BME280;6334;48.696;2.114;2022-07-29T02:09:44;99764.55;;;20.22;47.45
12536;BME280;6334;48.696;2.114;2022-07-29T02:12:16;99772.48;;;19.93;48.43
12536;BME280;6334;48.696;2.114;2022-07-29T02:14:48;99773.16;;;19.84;48.69
12536;BME280;6334;48.696;2.114;2022-07-29T02:17:18;99777.13;;;19.65;49.13
12536;BME280;6334;48.696;2.114;2022-07-29T02:19:46;99776.62;;;19.89;48.54
12536;BME280;6334;48.696;2.114;2022-07-29T02:22:17;99776.34;;;19.69;49.00
12536;BME280;6334;48.696;2.114;2022-07-29T02:24:47;99777.28;;;19.58;49.28
12536;BME280;6334;48.696;2.114;2022-07-29T02:27:18;99762.82;;;19.42;49.24
12536;BME280;6334;48.696;2.114;2022-07-29T02:29:48;99768.61;;;19.44;49.51
12536;BME280;6334;48.696;2.114;2022-07-29T02:32:19;99771.45;;;19.28;49.95
12536;BME280;6334;48.696;2.114;2022-07-29T02:34:49;99776.56;;;19.41;49.43
12536;BME280;6334;48.696;2.114;2022-07-29T02:37:19;99773.12;;;19.28;49.68
12536;BME280;6334;48.696;2.114;2022-07-29T02:39:50;99774.33;;;19.44;49.16
12536;BME280;6334;48.696;2.114;2022-07-29T02:42:21;99748.82;;;19.49;48.75
12536;BME280;6334;48.696;2.114;2022-07-29T02:44:51;99772.61;;;19.41;49.20
12536;BME280;6334;48.696;2.114;2022-07-29T02:47:47;99769.88;;;19.85;48.24
12536;BME280;6334;48.696;2.114;2022-07-29T02:50:23;99771.05;;;19.86;48.01
12536;BME280;6334;48.696;2.114;2022-07-29T02:52:52;99771.98;;;19.91;48.46
12536;BME280;6334;48.696;2.114;2022-07-29T02:58:29;99773.03;;;19.96;48.29
12536;BME280;6334;48.696;2.114;2022-07-29T03:00:59;99770.41;;;20.00;48.40
12536;BME280;6334;48.696;2.114;2022-07-29T03:03:30;99772.39;;;19.93;48.25
12536;BME280;6334;48.696;2.114;2022-07-29T03:05:59;99772.80;;;20.00;48.61
12536;BME280;6334;48.696;2.114;2022-07-29T03:08:29;99778.69;;;19.88;50.14
12536;BME280;6334;48.696;2.114;2022-07-29T03:11:00;99778.05;;;19.67;49.74
12536;BME280;6334;48.696;2.114;2022-07-29T03:13:30;99772.87;;;19.53;49.96
12536;BME280;6334;48.696;2.114;2022-07-29T03:16:01;99775.35;;;19.81;49.25
12536;BME280;6334;48.696;2.114;2022-07-29T03:18:31;99781.38;;;19.73;49.11
12536;BME280;6334;48.696;2.114;2022-07-29T03:21:02;99780.02;;;19.90;49.27
12536;BME280;6334;48.696;2.114;2022-07-29T03:23:32;99771.70;;;20.03;49.19
12536;BME280;6334;48.696;2.114;2022-07-29T03:26:03;99776.62;;;19.75;49.85
12536;BME280;6334;48.696;2.114;2022-07-29T03:28:33;99773.10;;;19.70;49.80
12536;BME280;6334;48.696;2.114;2022-07-29T03:31:04;99774.08;;;19.59;50.27
12536;BME280;6334;48.696;2.114;2022-07-29T03:33:34;99777.80;;;19.48;49.94
12536;BME280;6334;48.696;2.114;2022-07-29T03:36:04;99778.63;;;19.11;50.55
12536;BME280;6334;48.696;2.114;2022-07-29T03:38:35;99780.41;;;19.43;50.00
12536;BME280;6334;48.696;2.114;2022-07-29T03:41:07;99782.61;;;18.83;51.42
12536;BME280;6334;48.696;2.114;2022-07-29T03:43:37;99788.91;;;19.34;50.78
12536;BME280;6334;48.696;2.114;2022-07-29T03:46:07;99784.00;;;19.52;50.10
12536;BME280;6334;48.696;2.114;2022-07-29T03:48:38;99789.40;;;19.44;50.51
12536;BME280;6334;48.696;2.114;2022-07-29T03:51:07;99712.47;;;19.07;50.00
12536;BME280;6334;48.696;2.114;2022-07-29T03:53:38;99788.33;;;19.31;52.38
12536;BME280;6334;48.696;2.114;2022-07-29T03:56:08;99793.96;;;19.59;52.07
12536;BME280;6334;48.696;2.114;2022-07-29T03:58:39;99796.32;;;19.38;51.33
12536;BME280;6334;48.696;2.114;2022-07-29T04:01:09;99801.28;;;19.34;51.32
12536;BME280;6334;48.696;2.114;2022-07-29T04:03:39;99798.55;;;19.49;50.39
12536;BME280;6334;48.696;2.114;2022-07-29T04:06:10;99797.40;;;19.38;50.46
12536;BME280;6334;48.696;2.114;2022-07-29T04:08:40;99797.63;;;19.59;51.73
12536;BME280;6334;48.696;2.114;2022-07-29T04:11:11;99799.96;;;19.81;51.90
12536;BME280;6334;48.696;2.114;2022-07-29T04:13:41;99795.27;;;19.43;51.39
12536;BME280;6334;48.696;2.114;2022-07-29T04:16:12;99796.98;;;19.38;51.02
12536;BME280;6334;48.696;2.114;2022-07-29T04:18:42;99753.42;;;19.14;50.66
12536;BME280;6334;48.696;2.114;2022-07-29T04:21:13;99798.41;;;19.24;51.19
12536;BME280;6334;48.696;2.114;2022-07-29T04:23:43;99799.08;;;18.75;52.31
12536;BME280;6334;48.696;2.114;2022-07-29T04:26:14;99801.91;;;18.78;52.41
12536;BME280;6334;48.696;2.114;2022-07-29T04:28:44;99805.73;;;18.44;53.59
12536;BME280;6334;48.696;2.114;2022-07-29T04:31:15;99807.11;;;18.45;53.89
12536;BME280;6334;48.696;2.114;2022-07-29T04:33:45;99728.74;;;18.10;53.63
12536;BME280;6334;48.696;2.114;2022-07-29T04:36:15;99778.36;;;18.46;53.18
12536;BME280;6334;48.696;2.114;2022-07-29T04:38:46;99793.59;;;19.33;52.29
12536;BME280;6334;48.696;2.114;2022-07-29T04:41:16;99804.22;;;19.59;52.75
12536;BME280;6334;48.696;2.114;2022-07-29T04:43:47;99810.32;;;18.79;54.68
12536;BME280;6334;48.696;2.114;2022-07-29T04:46:17;99807.85;;;18.59;56.13
12536;BME280;6334;48.696;2.114;2022-07-29T04:48:48;99802.25;;;18.95;55.63
12536;BME280;6334;48.696;2.114;2022-07-29T04:51:18;99803.54;;;19.38;53.46
12536;BME280;6334;48.696;2.114;2022-07-29T04:53:49;99804.59;;;19.38;52.66
12536;BME280;6334;48.696;2.114;2022-07-29T04:56:19;99804.36;;;19.33;52.25
12536;BME280;6334;48.696;2.114;2022-07-29T04:58:50;99806.06;;;19.49;52.08
12536;BME280;6334;48.696;2.114;2022-07-29T05:01:20;99814.36;;;19.74;53.39
12536;BME280;6334;48.696;2.114;2022-07-29T05:03:50;99811.61;;;19.18;55.49
12536;BME280;6334;48.696;2.114;2022-07-29T05:06:21;99814.38;;;19.72;53.38
12536;BME280;6334;48.696;2.114;2022-07-29T05:08:51;99809.84;;;19.97;53.25
12536;BME280;6334;48.696;2.114;2022-07-29T05:11:22;99803.06;;;19.47;54.61
12536;BME280;6334;48.696;2.114;2022-07-29T05:13:52;99802.50;;;19.54;54.23
12536;BME280;6334;48.696;2.114;2022-07-29T05:16:23;99803.98;;;18.82;56.48
12536;BME280;6334;48.696;2.114;2022-07-29T05:18:53;99809.27;;;19.73;53.60
12536;BME280;6334;48.696;2.114;2022-07-29T05:21:24;99812.30;;;19.40;53.78
12536;BME280;6334;48.696;2.114;2022-07-29T05:23:54;99811.69;;;19.10;54.83
12536;BME280;6334;48.696;2.114;2022-07-29T05:26:25;99818.39;;;19.06;54.22
12536;BME280;6334;48.696;2.114;2022-07-29T05:28:55;99821.78;;;19.05;53.77
12536;BME280;6334;48.696;2.114;2022-07-29T05:31:25;99821.29;;;19.20;53.58
12536;BME280;6334;48.696;2.114;2022-07-29T05:33:56;99826.11;;;19.25;53.33
12536;BME280;6334;48.696;2.114;2022-07-29T05:36:26;99833.97;;;19.23;53.64
12536;BME280;6334;48.696;2.114;2022-07-29T05:38:57;99836.98;;;19.27;53.08
12536;BME280;6334;48.696;2.114;2022-07-29T05:41:27;99836.39;;;19.18;53.04
12536;BME280;6334;48.696;2.114;2022-07-29T05:43:58;99836.56;;;19.20;53.12
12536;BME280;6334;48.696;2.114;2022-07-29T05:46:28;99849.51;;;19.43;52.88
12536;BME280;6334;48.696;2.114;2022-07-29T05:48:59;99856.05;;;18.95;54.32
12536;BME280;6334;48.696;2.114;2022-07-29T05:51:29;99854.38;;;19.13;54.11
12536;BME280;6334;48.696;2.114;2022-07-29T05:54:00;99849.99;;;19.47;53.46
12536;BME280;6334;48.696;2.114;2022-07-29T05:56:30;99846.56;;;19.66;52.86
12536;BME280;6334;48.696;2.114;2022-07-29T05:59:00;99850.48;;;19.70;53.06
12536;BME280;6334;48.696;2.114;2022-07-29T06:01:31;99845.28;;;19.88;55.37
12536;BME280;6334;48.696;2.114;2022-07-29T06:04:01;99845.33;;;19.88;56.08
12536;BME280;6334;48.696;2.114;2022-07-29T06:06:32;99844.20;;;19.86;55.32
12536;BME280;6334;48.696;2.114;2022-07-29T06:09:02;99843.46;;;20.10;54.30
12536;BME280;6334;48.696;2.114;2022-07-29T06:11:33;99844.10;;;20.20;54.29
12536;BME280;6334;48.696;2.114;2022-07-29T06:14:03;99851.43;;;19.95;55.92
12536;BME280;6334;48.696;2.114;2022-07-29T06:16:34;99851.29;;;20.36;54.53
12536;BME280;6334;48.696;2.114;2022-07-29T06:19:04;99851.41;;;19.98;57.08
12536;BME280;6334;48.696;2.114;2022-07-29T06:21:35;99847.06;;;20.34;53.63
12536;BME280;6334;48.696;2.114;2022-07-29T06:24:05;99841.50;;;20.52;51.58
12536;BME280;6334;48.696;2.114;2022-07-29T06:26:36;99845.88;;;20.57;51.74
12536;BME280;6334;48.696;2.114;2022-07-29T06:29:06;99840.05;;;20.23;52.96
12536;BME280;6334;48.696;2.114;2022-07-29T06:31:37;99860.86;;;20.39;52.70
12536;BME280;6334;48.696;2.114;2022-07-29T06:34:07;99859.39;;;20.53;52.54
12536;BME280;6334;48.696;2.114;2022-07-29T06:36:38;99860.05;;;20.52;51.35
12536;BME280;6334;48.696;2.114;2022-07-29T06:39:08;99867.22;;;20.86;51.11
12536;BME280;6334;48.696;2.114;2022-07-29T06:41:38;99867.17;;;20.51;54.87
12536;BME280;6334;48.696;2.114;2022-07-29T06:44:09;99869.66;;;21.09;52.61
12536;BME280;6334;48.696;2.114;2022-07-29T06:46:39;99834.76;;;20.97;53.48
12536;BME280;6334;48.696;2.114;2022-07-29T06:49:10;99872.06;;;20.99;54.00
12536;BME280;6334;48.696;2.114;2022-07-29T06:51:40;99839.64;;;20.14;57.35
12536;BME280;6334;48.696;2.114;2022-07-29T06:54:11;99878.69;;;20.54;57.24
12536;BME280;6334;48.696;2.114;2022-07-29T06:56:41;99883.56;;;21.15;53.94
12536;BME280;6334;48.696;2.114;2022-07-29T06:59:12;99883.22;;;21.09;51.57
12536;BME280;6334;48.696;2.114;2022-07-29T07:01:42;99886.71;;;21.16;51.81
12536;BME280;6334;48.696;2.114;2022-07-29T07:04:12;99885.62;;;21.93;49.22
12536;BME280;6334;48.696;2.114;2022-07-29T07:06:43;99888.25;;;21.93;48.93
12536;BME280;6334;48.696;2.114;2022-07-29T07:09:13;99888.36;;;22.17;48.52
12536;BME280;6334;48.696;2.114;2022-07-29T07:11:44;99894.32;;;22.55;47.68
12536;BME280;6334;48.696;2.114;2022-07-29T07:14:14;99892.75;;;22.45;48.73
12536;BME280;6334;48.696;2.114;2022-07-29T07:16:45;99900.58;;;22.95;48.00
12536;BME280;6334;48.696;2.114;2022-07-29T07:19:15;99893.56;;;23.09;48.51
12536;BME280;6334;48.696;2.114;2022-07-29T07:21:46;99896.36;;;22.54;49.36
12536;BME280;6334;48.696;2.114;2022-07-29T07:24:16;99893.55;;;23.15;47.84
12536;BME280;6334;48.696;2.114;2022-07-29T07:26:47;99897.28;;;23.07;48.38
12536;BME280;6334;48.696;2.114;2022-07-29T07:29:17;99903.09;;;23.30;47.71
12536;BME280;6334;48.696;2.114;2022-07-29T07:31:48;99903.97;;;23.22;47.72
12536;BME280;6334;48.696;2.114;2022-07-29T07:34:18;99907.77;;;23.95;46.10
12536;BME280;6334;48.696;2.114;2022-07-29T07:36:48;99902.23;;;24.29;45.65
12536;BME280;6334;48.696;2.114;2022-07-29T07:39:19;99899.59;;;24.47;45.83
12536;BME280;6334;48.696;2.114;2022-07-29T07:41:49;99903.98;;;24.36;46.18
12536;BME280;6334;48.696;2.114;2022-07-29T07:44:20;99910.38;;;23.78;48.18
12536;BME280;6334;48.696;2.114;2022-07-29T07:46:50;99903.99;;;23.46;49.31
12536;BME280;6334;48.696;2.114;2022-07-29T07:49:21;99911.07;;;24.14;47.93
12536;BME280;6334;48.696;2.114;2022-07-29T07:51:51;99912.02;;;24.68;46.52
12536;BME280;6334;48.696;2.114;2022-07-29T07:54:22;99910.79;;;24.56;46.92
12536;BME280;6334;48.696;2.114;2022-07-29T07:56:52;99908.73;;;24.35;47.01
12536;BME280;6334;48.696;2.114;2022-07-29T07:59:23;99909.71;;;24.42;46.87
12536;BME280;6334;48.696;2.114;2022-07-29T08:01:53;99914.59;;;24.83;46.73
12536;BME280;6334;48.696;2.114;2022-07-29T08:04:23;99913.89;;;25.03;46.60
12536;BME280;6334;48.696;2.114;2022-07-29T08:06:55;99925.81;;;23.91;48.35
12536;BME280;6334;48.696;2.114;2022-07-29T08:09:25;99922.90;;;23.76;50.70
12536;BME280;6334;48.696;2.114;2022-07-29T08:11:55;99917.39;;;24.09;48.93
12536;BME280;6334;48.696;2.114;2022-07-29T08:14:25;99917.97;;;24.19;47.76
12536;BME280;6334;48.696;2.114;2022-07-29T08:16:56;99919.27;;;24.31;47.21
12536;BME280;6334;48.696;2.114;2022-07-29T08:19:26;99922.30;;;23.75;49.15
12536;BME280;6334;48.696;2.114;2022-07-29T08:21:57;99918.94;;;24.18;47.59
12536;BME280;6334;48.696;2.114;2022-07-29T08:24:27;99918.72;;;24.16;45.93
12536;BME280;6334;48.696;2.114;2022-07-29T08:27:10;99917.63;;;24.29;46.37
12536;BME280;6334;48.696;2.114;2022-07-29T08:29:40;99921.77;;;24.38;47.28
12536;BME280;6334;48.696;2.114;2022-07-29T08:32:10;99918.12;;;24.40;46.13
12536;BME280;6334;48.696;2.114;2022-07-29T08:34:41;99922.84;;;23.82;45.56
12536;BME280;6334;48.696;2.114;2022-07-29T08:37:11;99923.02;;;24.46;45.23
12536;BME280;6334;48.696;2.114;2022-07-29T08:39:42;99926.27;;;24.56;45.60
12536;BME280;6334;48.696;2.114;2022-07-29T08:42:12;99869.95;;;24.29;44.86
12536;BME280;6334;48.696;2.114;2022-07-29T08:44:43;99919.08;;;24.54;44.57
12536;BME280;6334;48.696;2.114;2022-07-29T08:47:16;99923.81;;;24.79;43.21
12536;BME280;6334;48.696;2.114;2022-07-29T08:49:46;99918.88;;;24.67;44.13
12536;BME280;6334;48.696;2.114;2022-07-29T08:52:17;99920.97;;;24.53;42.54
12536;BME280;6334;48.696;2.114;2022-07-29T08:54:47;99920.59;;;24.67;42.73
12536;BME280;6334;48.696;2.114;2022-07-29T08:57:18;99920.81;;;24.69;43.19
12536;BME280;6334;48.696;2.114;2022-07-29T08:59:48;99916.97;;;24.61;43.56
12536;BME280;6334;48.696;2.114;2022-07-29T09:02:20;99917.20;;;24.92;44.36
12536;BME280;6334;48.696;2.114;2022-07-29T09:04:49;99915.81;;;25.23;44.04
12536;BME280;6334;48.696;2.114;2022-07-29T09:07:20;99921.53;;;25.43;43.19
12536;BME280;6334;48.696;2.114;2022-07-29T09:09:50;99920.09;;;25.22;41.97
12536;BME280;6334;48.696;2.114;2022-07-29T09:12:21;99921.39;;;25.27;43.27
12536;BME280;6334;48.696;2.114;2022-07-29T09:14:51;99917.45;;;24.92;42.81
12536;BME280;6334;48.696;2.114;2022-07-29T09:17:44;99918.13;;;25.18;42.26
12536;BME280;6334;48.696;2.114;2022-07-29T09:20:15;99916.78;;;25.13;42.57
12536;BME280;6334;48.696;2.114;2022-07-29T09:22:43;99918.72;;;25.42;41.57
12536;BME280;6334;48.696;2.114;2022-07-29T09:25:37;99920.38;;;25.30;41.65
12536;BME280;6334;48.696;2.114;2022-07-29T09:28:10;99916.10;;;25.61;41.56
12536;BME280;6334;48.696;2.114;2022-07-29T09:30:51;99919.39;;;25.97;40.98
12536;BME280;6334;48.696;2.114;2022-07-29T09:33:21;99884.64;;;24.81;41.19
12536;BME280;6334;48.696;2.114;2022-07-29T09:36:04;99919.78;;;25.96;40.73
12536;BME280;6334;48.696;2.114;2022-07-29T09:38:33;99922.41;;;25.30;41.35
12536;BME280;6334;48.696;2.114;2022-07-29T09:41:04;99924.25;;;25.69;41.90
12536;BME280;6334;48.696;2.114;2022-07-29T09:43:34;99926.05;;;25.73;40.17
12536;BME280;6334;48.696;2.114;2022-07-29T09:46:10;99927.23;;;26.16;39.69
12536;BME280;6334;48.696;2.114;2022-07-29T09:48:40;99928.81;;;26.63;40.11
12536;BME280;6334;48.696;2.114;2022-07-29T09:51:19;99929.20;;;26.24;38.07
12536;BME280;6334;48.696;2.114;2022-07-29T09:53:50;99933.86;;;26.66;38.27
12536;BME280;6334;48.696;2.114;2022-07-29T09:56:21;99930.12;;;27.07;38.78
12536;BME280;6334;48.696;2.114;2022-07-29T09:59:04;99928.89;;;27.25;38.35
12536;BME280;6334;48.696;2.114;2022-07-29T10:01:30;99927.34;;;27.40;38.03
12536;BME280;6334;48.696;2.114;2022-07-29T10:03:52;99916.06;;;27.00;38.79
12536;BME280;6334;48.696;2.114;2022-07-29T10:06:22;99923.00;;;27.18;37.64
12536;BME280;6334;48.696;2.114;2022-07-29T10:08:53;99921.17;;;26.91;37.73
12536;BME280;6334;48.696;2.114;2022-07-29T10:11:23;99920.75;;;27.14;37.72
12536;BME280;6334;48.696;2.114;2022-07-29T10:13:53;99926.26;;;26.66;38.16
12536;BME280;6334;48.696;2.114;2022-07-29T10:16:24;99909.48;;;27.31;37.51
12536;BME280;6334;48.696;2.114;2022-07-29T10:18:54;99916.72;;;27.17;35.62
12536;BME280;6334;48.696;2.114;2022-07-29T10:21:25;99920.25;;;26.99;36.79
12536;BME280;6334;48.696;2.114;2022-07-29T10:23:55;99918.75;;;27.30;36.55
12536;BME280;6334;48.696;2.114;2022-07-29T10:26:26;99920.83;;;27.53;35.32
12536;BME280;6334;48.696;2.114;2022-07-29T10:28:56;99924.86;;;27.55;35.74
12536;BME280;6334;48.696;2.114;2022-07-29T10:31:36;99924.40;;;27.63;36.08
12536;BME280;6334;48.696;2.114;2022-07-29T10:34:03;99922.95;;;27.71;36.29
12536;BME280;6334;48.696;2.114;2022-07-29T10:44:30;99926.58;;;27.77;35.53
12536;BME280;6334;48.696;2.114;2022-07-29T10:47:00;99931.42;;;27.92;35.35
12536;BME280;6334;48.696;2.114;2022-07-29T10:49:31;99924.80;;;27.80;35.62
12536;BME280;6334;48.696;2.114;2022-07-29T10:54:44;99932.30;;;27.75;35.58
12536;BME280;6334;48.696;2.114;2022-07-29T10:59:50;99924.66;;;27.77;35.77
12536;BME280;6334;48.696;2.114;2022-07-29T11:05:04;99933.44;;;27.63;35.05
12536;BME280;6334;48.696;2.114;2022-07-29T11:07:35;99840.37;;;27.73;34.89
12536;BME280;6334;48.696;2.114;2022-07-29T11:15:18;99932.67;;;28.25;34.98
12536;BME280;6334;48.696;2.114;2022-07-29T11:20:37;99930.41;;;28.34;33.58
12536;BME280;6334;48.696;2.114;2022-07-29T11:23:23;99934.36;;;28.26;33.27
12536;BME280;6334;48.696;2.114;2022-07-29T11:29:06;99935.23;;;28.17;34.51
12536;BME280;6334;48.696;2.114;2022-07-29T11:34:28;99940.36;;;28.36;33.88
12536;BME280;6334;48.696;2.114;2022-07-29T11:47:27;99938.67;;;28.19;33.57
12536;BME280;6334;48.696;2.114;2022-07-29T11:49:57;99934.34;;;28.52;32.65
12536;BME280;6334;48.696;2.114;2022-07-29T11:52:41;99932.12;;;28.44;34.07
12536;BME280;6334;48.696;2.114;2022-07-29T11:55:11;99932.25;;;28.77;33.16
12536;BME280;6334;48.696;2.114;2022-07-29T11:57:47;99930.84;;;28.23;32.87
12536;BME280;6334;48.696;2.114;2022-07-29T12:00:27;99928.44;;;27.87;33.20
12536;BME280;6334;48.696;2.114;2022-07-29T12:02:56;99923.48;;;28.01;32.66
12536;BME280;6334;48.696;2.114;2022-07-29T12:05:36;99886.39;;;27.38;33.07
12536;BME280;6334;48.696;2.114;2022-07-29T12:08:12;99925.55;;;28.14;33.35
12536;BME280;6334;48.696;2.114;2022-07-29T12:10:42;99923.35;;;28.59;33.11
12536;BME280;6334;48.696;2.114;2022-07-29T12:13:13;99924.28;;;28.54;33.70
12536;BME280;6334;48.696;2.114;2022-07-29T12:15:50;99888.20;;;28.68;32.64
12536;BME280;6334;48.696;2.114;2022-07-29T12:18:17;99925.47;;;29.02;32.93
12536;BME280;6334;48.696;2.114;2022-07-29T12:20:43;99929.31;;;28.97;31.96
12536;BME280;6334;48.696;2.114;2022-07-29T12:23:14;99926.64;;;28.57;33.07
12536;BME280;6334;48.696;2.114;2022-07-29T12:25:44;99931.41;;;28.72;33.94
12536;BME280;6334;48.696;2.114;2022-07-29T12:28:15;99931.28;;;28.58;33.25
12536;BME280;6334;48.696;2.114;2022-07-29T12:30:48;99927.85;;;28.63;32.56
12536;BME280;6334;48.696;2.114;2022-07-29T12:33:22;99924.44;;;28.18;33.03
12536;BME280;6334;48.696;2.114;2022-07-29T12:35:50;99920.73;;;28.75;31.85
12536;BME280;6334;48.696;2.114;2022-07-29T12:38:19;99924.84;;;28.50;31.91
12536;BME280;6334;48.696;2.114;2022-07-29T12:40:50;99931.38;;;29.00;32.91
12536;BME280;6334;48.696;2.114;2022-07-29T12:43:21;99927.75;;;28.04;32.73
12536;BME280;6334;48.696;2.114;2022-07-29T12:45:51;99923.77;;;28.14;33.06
12536;BME280;6334;48.696;2.114;2022-07-29T12:48:37;99921.46;;;29.00;31.99
12536;BME280;6334;48.696;2.114;2022-07-29T12:51:06;99917.51;;;28.96;32.33
12536;BME280;6334;48.696;2.114;2022-07-29T12:53:36;99908.89;;;28.77;32.36
12536;BME280;6334;48.696;2.114;2022-07-29T12:56:09;99914.00;;;29.05;31.69
12536;BME280;6334;48.696;2.114;2022-07-29T12:58:38;99912.59;;;28.75;32.36
12536;BME280;6334;48.696;2.114;2022-07-29T13:01:14;99912.95;;;29.05;32.25
12536;BME280;6334;48.696;2.114;2022-07-29T13:03:47;99911.91;;;29.44;32.38
12536;BME280;6334;48.696;2.114;2022-07-29T13:06:39;99916.47;;;29.40;31.76
12536;BME280;6334;48.696;2.114;2022-07-29T13:09:09;99921.88;;;29.24;31.97
12536;BME280;6334;48.696;2.114;2022-07-29T13:11:38;99925.98;;;29.01;31.60
12536;BME280;6334;48.696;2.114;2022-07-29T13:14:08;99924.07;;;29.33;32.22
12536;BME280;6334;48.696;2.114;2022-07-29T13:16:59;99923.20;;;29.29;31.51
12536;BME280;6334;48.696;2.114;2022-07-29T13:19:11;99930.16;;;28.97;33.21
12536;BME280;6334;48.696;2.114;2022-07-29T13:21:42;99929.25;;;29.25;31.73
12536;BME280;6334;48.696;2.114;2022-07-29T13:24:12;99937.12;;;29.06;31.80
12536;BME280;6334;48.696;2.114;2022-07-29T13:26:43;99924.88;;;28.83;32.34
12536;BME280;6334;48.696;2.114;2022-07-29T13:29:13;99928.76;;;29.15;32.60
12536;BME280;6334;48.696;2.114;2022-07-29T13:31:43;99919.15;;;29.23;32.30
12536;BME280;6334;48.696;2.114;2022-07-29T13:34:14;99915.45;;;28.95;31.20
12536;BME280;6334;48.696;2.114;2022-07-29T13:36:44;99914.02;;;29.35;31.49
12536;BME280;6334;48.696;2.114;2022-07-29T13:39:15;99916.59;;;29.47;31.87
12536;BME280;6334;48.696;2.114;2022-07-29T13:41:45;99911.09;;;29.81;32.41
12536;BME280;6334;48.696;2.114;2022-07-29T13:44:16;99914.53;;;29.83;31.81
12536;BME280;6334;48.696;2.114;2022-07-29T13:46:46;99918.16;;;29.50;32.19
12536;BME280;6334;48.696;2.114;2022-07-29T13:49:17;99922.02;;;29.62;31.53
12536;BME280;6334;48.696;2.114;2022-07-29T13:51:48;99916.46;;;29.34;31.00
12536;BME280;6334;48.696;2.114;2022-07-29T13:54:18;99917.56;;;29.47;31.32
12536;BME280;6334;48.696;2.114;2022-07-29T13:56:49;99916.08;;;29.52;30.98
12536;BME280;6334;48.696;2.114;2022-07-29T13:59:18;99911.77;;;29.46;30.97
12536;BME280;6334;48.696;2.114;2022-07-29T14:01:49;99855.84;;;28.96;32.67
12536;BME280;6334;48.696;2.114;2022-07-29T14:04:19;99904.24;;;29.04;30.85
12536;BME280;6334;48.696;2.114;2022-07-29T14:06:53;99911.63;;;29.20;32.13
12536;BME280;6334;48.696;2.114;2022-07-29T14:09:23;99911.20;;;29.56;31.58
12536;BME280;6334;48.696;2.114;2022-07-29T14:11:53;99913.58;;;29.65;31.15
12536;BME280;6334;48.696;2.114;2022-07-29T14:14:24;99916.38;;;29.65;30.87
12536;BME280;6334;48.696;2.114;2022-07-29T14:16:54;99914.48;;;29.75;30.97
12536;BME280;6334;48.696;2.114;2022-07-29T14:19:25;99913.98;;;29.39;30.52
12536;BME280;6334;48.696;2.114;2022-07-29T14:21:55;99917.31;;;29.12;31.59
12536;BME280;6334;48.696;2.114;2022-07-29T14:24:26;99919.11;;;29.09;32.27
12536;BME280;6334;48.696;2.114;2022-07-29T14:26:56;99916.92;;;28.64;31.65
12536;BME280;6334;48.696;2.114;2022-07-29T14:29:27;99919.28;;;28.81;32.12
12536;BME280;6334;48.696;2.114;2022-07-29T14:31:57;99912.64;;;28.78;32.25